sensor_id;sensor_type;location;lat;lon;timestamp;temperature;humidity
21393;DHT22;10857;52.228;21.026;2024-02-16T00:00:10;8.60;99.90
21393;DHT22;10857;52.228;21.026;2024-02-16T00:02:40;8.70;99.90
21393;DHT22;10857;52.228;21.026;2024-02-16T00:05:10;8.70;99.90
21393;DHT22;10857;52.228;21.026;2024-02-16T00:07:40;8.70;99.90
21393;DHT22;10857;52.228;21.026;2024-02-16T00:10:08;8.70;99.90
21393;DHT22;10857;52.228;21.026;2024-02-16T00:12:36;8.70;99.90
21393;DHT22;10857;52.228;21.026;2024-02-16T00:15:04;8.70;99.90
21393;DHT22;10857;52.228;21.026;2024-02-16T00:17:31;8.70;99.90
21393;DHT22;10857;52.228;21.026;2024-02-16T00:20:00;8.70;99.90
21393;DHT22;10857;52.228;21.026;2024-02-16T00:22:27;8.70;99.90
21393;DHT22;10857;52.228;21.026;2024-02-16T00:24:55;8.70;99.90
21393;DHT22;10857;52.228;21.026;2024-02-16T00:27:22;8.60;99.90
21393;DHT22;10857;52.228;21.026;2024-02-16T00:29:49;8.60;99.90
21393;DHT22;10857;52.228;21.026;2024-02-16T00:32:30;8.60;99.90
21393;DHT22;10857;52.228;21.026;2024-02-16T00:34:58;8.60;99.90
21393;DHT22;10857;52.228;21.026;2024-02-16T00:37:25;8.60;99.90
21393;DHT22;10857;52.228;21.026;2024-02-16T00:39:52;8.70;99.90
21393;DHT22;10857;52.228;21.026;2024-02-16T00:42:21;8.60;99.90
21393;DHT22;10857;52.228;21.026;2024-02-16T00:44:53;8.60;99.90
21393;DHT22;10857;52.228;21.026;2024-02-16T00:47:20;8.60;99.90
21393;DHT22;10857;52.228;21.026;2024-02-16T00:49:55;8.50;99.90
21393;DHT22;10857;52.228;21.026;2024-02-16T00:52:23;8.50;99.90
21393;DHT22;10857;52.228;21.026;2024-02-16T00:54:51;8.50;99.90
21393;DHT22;10857;52.228;21.026;2024-02-16T00:57:18;8.40;99.90
21393;DHT22;10857;52.228;21.026;2024-02-16T00:59:45;8.40;99.90
21393;DHT22;10857;52.228;21.026;2024-02-16T01:02:12;8.40;99.90
21393;DHT22;10857;52.228;21.026;2024-02-16T01:04:40;8.30;99.90
21393;DHT22;10857;52.228;21.026;2024-02-16T01:07:07;8.30;99.90
21393;DHT22;10857;52.228;21.026;2024-02-16T01:09:34;8.30;99.90
21393;DHT22;10857;52.228;21.026;2024-02-16T01:12:03;8.30;99.90
21393;DHT22;10857;52.228;21.026;2024-02-16T01:14:31;8.20;99.90
21393;DHT22;10857;52.228;21.026;2024-02-16T01:16:58;8.20;99.90
21393;DHT22;10857;52.228;21.026;2024-02-16T01:19:25;8.30;99.90
21393;DHT22;10857;52.228;21.026;2024-02-16T01:21:52;8.20;99.90
21393;DHT22;10857;52.228;21.026;2024-02-16T01:24:24;8.20;99.90
21393;DHT22;10857;52.228;21.026;2024-02-16T01:26:51;8.20;99.90
21393;DHT22;10857;52.228;21.026;2024-02-16T01:29:19;8.10;99.90
21393;DHT22;10857;52.228;21.026;2024-02-16T01:31:46;8.10;99.90
21393;DHT22;10857;52.228;21.026;2024-02-16T01:34:13;8.10;99.90
21393;DHT22;10857;52.228;21.026;2024-02-16T01:36:40;8.10;99.90
21393;DHT22;10857;52.228;21.026;2024-02-16T01:39:07;8.00;99.90
21393;DHT22;10857;52.228;21.026;2024-02-16T01:41:38;8.00;99.90
21393;DHT22;10857;52.228;21.026;2024-02-16T01:44:06;8.00;99.90
21393;DHT22;10857;52.228;21.026;2024-02-16T01:46:34;8.00;99.90
21393;DHT22;10857;52.228;21.026;2024-02-16T01:49:02;7.90;99.90
21393;DHT22;10857;52.228;21.026;2024-02-16T01:51:31;7.90;99.90
21393;DHT22;10857;52.228;21.026;2024-02-16T01:53:59;7.90;99.90
21393;DHT22;10857;52.228;21.026;2024-02-16T01:56:28;7.90;99.90
21393;DHT22;10857;52.228;21.026;2024-02-16T01:58:56;7.90;99.90
21393;DHT22;10857;52.228;21.026;2024-02-16T02:01:23;7.90;99.90
21393;DHT22;10857;52.228;21.026;2024-02-16T02:03:50;7.80;99.90
21393;DHT22;10857;52.228;21.026;2024-02-16T02:06:18;7.80;99.90
21393;DHT22;10857;52.228;21.026;2024-02-16T02:08:45;7.80;99.90
21393;DHT22;10857;52.228;21.026;2024-02-16T02:11:12;7.80;99.90
21393;DHT22;10857;52.228;21.026;2024-02-16T02:13:39;7.80;99.90
21393;DHT22;10857;52.228;21.026;2024-02-16T02:16:10;7.80;99.90
21393;DHT22;10857;52.228;21.026;2024-02-16T02:18:37;7.80;99.90
21393;DHT22;10857;52.228;21.026;2024-02-16T02:21:04;7.80;99.90
21393;DHT22;10857;52.228;21.026;2024-02-16T02:23:31;7.80;99.90
21393;DHT22;10857;52.228;21.026;2024-02-16T02:25:59;7.80;99.90
21393;DHT22;10857;52.228;21.026;2024-02-16T02:28:26;7.80;99.90
21393;DHT22;10857;52.228;21.026;2024-02-16T02:30:53;7.80;99.90
21393;DHT22;10857;52.228;21.026;2024-02-16T02:33:21;7.90;99.90
21393;DHT22;10857;52.228;21.026;2024-02-16T02:35:49;7.80;99.90
21393;DHT22;10857;52.228;21.026;2024-02-16T02:38:16;7.80;99.90
21393;DHT22;10857;52.228;21.026;2024-02-16T02:40:43;7.90;99.90
21393;DHT22;10857;52.228;21.026;2024-02-16T02:43:10;7.90;99.90
21393;DHT22;10857;52.228;21.026;2024-02-16T02:45:37;7.90;99.90
21393;DHT22;10857;52.228;21.026;2024-02-16T02:48:05;7.80;99.90
21393;DHT22;10857;52.228;21.026;2024-02-16T02:50:32;7.70;99.90
21393;DHT22;10857;52.228;21.026;2024-02-16T02:52:59;7.80;99.90
21393;DHT22;10857;52.228;21.026;2024-02-16T02:55:26;7.70;99.90
21393;DHT22;10857;52.228;21.026;2024-02-16T02:57:53;7.80;99.90
21393;DHT22;10857;52.228;21.026;2024-02-16T03:00:21;7.70;99.90
21393;DHT22;10857;52.228;21.026;2024-02-16T03:02:48;7.80;99.90
21393;DHT22;10857;52.228;21.026;2024-02-16T03:05:15;7.70;99.90
21393;DHT22;10857;52.228;21.026;2024-02-16T03:07:43;7.70;99.90
21393;DHT22;10857;52.228;21.026;2024-02-16T03:10:10;7.60;99.90
21393;DHT22;10857;52.228;21.026;2024-02-16T03:12:37;7.60;99.90
21393;DHT22;10857;52.228;21.026;2024-02-16T03:15:05;7.60;99.90
21393;DHT22;10857;52.228;21.026;2024-02-16T03:17:32;7.60;99.90
21393;DHT22;10857;52.228;21.026;2024-02-16T03:20:00;7.60;99.90
21393;DHT22;10857;52.228;21.026;2024-02-16T03:22:27;7.60;99.90
21393;DHT22;10857;52.228;21.026;2024-02-16T03:24:54;7.60;99.90
21393;DHT22;10857;52.228;21.026;2024-02-16T03:27:21;7.50;99.90
21393;DHT22;10857;52.228;21.026;2024-02-16T03:29:48;7.50;99.90
21393;DHT22;10857;52.228;21.026;2024-02-16T03:32:16;7.50;99.90
21393;DHT22;10857;52.228;21.026;2024-02-16T03:34:43;7.50;99.90
21393;DHT22;10857;52.228;21.026;2024-02-16T03:37:11;7.40;99.90
21393;DHT22;10857;52.228;21.026;2024-02-16T03:39:38;7.40;99.90
21393;DHT22;10857;52.228;21.026;2024-02-16T03:42:06;7.40;99.90
21393;DHT22;10857;52.228;21.026;2024-02-16T03:44:33;7.40;99.90
21393;DHT22;10857;52.228;21.026;2024-02-16T03:47:00;7.30;99.90
21393;DHT22;10857;52.228;21.026;2024-02-16T03:49:27;7.20;99.90
21393;DHT22;10857;52.228;21.026;2024-02-16T03:51:57;7.10;99.90
21393;DHT22;10857;52.228;21.026;2024-02-16T03:54:24;7.10;99.90
21393;DHT22;10857;52.228;21.026;2024-02-16T03:56:54;7.10;99.90
21393;DHT22;10857;52.228;21.026;2024-02-16T03:59:21;7.00;99.90
21393;DHT22;10857;52.228;21.026;2024-02-16T04:01:51;7.00;99.90
21393;DHT22;10857;52.228;21.026;2024-02-16T04:04:18;7.00;99.90
21393;DHT22;10857;52.228;21.026;2024-02-16T04:06:45;6.90;99.90
21393;DHT22;10857;52.228;21.026;2024-02-16T04:09:13;7.00;99.90
21393;DHT22;10857;52.228;21.026;2024-02-16T04:11:41;7.00;99.90
21393;DHT22;10857;52.228;21.026;2024-02-16T04:14:08;7.00;99.90
21393;DHT22;10857;52.228;21.026;2024-02-16T04:16:35;7.00;99.90
21393;DHT22;10857;52.228;21.026;2024-02-16T04:19:02;7.00;99.90
21393;DHT22;10857;52.228;21.026;2024-02-16T04:21:29;7.00;99.90
21393;DHT22;10857;52.228;21.026;2024-02-16T04:23:56;6.90;99.90
21393;DHT22;10857;52.228;21.026;2024-02-16T04:26:23;6.90;99.90
21393;DHT22;10857;52.228;21.026;2024-02-16T04:28:50;6.90;99.90
21393;DHT22;10857;52.228;21.026;2024-02-16T04:31:17;6.90;99.90
21393;DHT22;10857;52.228;21.026;2024-02-16T04:33:44;6.80;99.90
21393;DHT22;10857;52.228;21.026;2024-02-16T04:36:13;6.80;99.90
21393;DHT22;10857;52.228;21.026;2024-02-16T04:38:42;6.80;99.90
21393;DHT22;10857;52.228;21.026;2024-02-16T04:41:09;6.80;99.90
21393;DHT22;10857;52.228;21.026;2024-02-16T04:43:36;6.80;99.90
21393;DHT22;10857;52.228;21.026;2024-02-16T04:46:03;6.90;99.90
21393;DHT22;10857;52.228;21.026;2024-02-16T04:48:30;6.80;99.90
21393;DHT22;10857;52.228;21.026;2024-02-16T04:50:59;6.80;99.90
21393;DHT22;10857;52.228;21.026;2024-02-16T04:53:26;6.70;99.90
21393;DHT22;10857;52.228;21.026;2024-02-16T04:55:53;6.70;99.90
21393;DHT22;10857;52.228;21.026;2024-02-16T04:58:20;6.70;99.90
21393;DHT22;10857;52.228;21.026;2024-02-16T05:00:47;6.70;99.90
21393;DHT22;10857;52.228;21.026;2024-02-16T05:03:14;6.70;99.90
21393;DHT22;10857;52.228;21.026;2024-02-16T05:05:42;6.70;99.90
21393;DHT22;10857;52.228;21.026;2024-02-16T05:08:09;6.80;99.90
21393;DHT22;10857;52.228;21.026;2024-02-16T05:10:36;6.80;99.90
21393;DHT22;10857;52.228;21.026;2024-02-16T05:13:04;6.80;99.90
21393;DHT22;10857;52.228;21.026;2024-02-16T05:15:31;6.80;99.90
21393;DHT22;10857;52.228;21.026;2024-02-16T05:18:00;6.80;99.90
21393;DHT22;10857;52.228;21.026;2024-02-16T05:20:27;6.80;99.90
21393;DHT22;10857;52.228;21.026;2024-02-16T05:22:54;6.80;99.90
21393;DHT22;10857;52.228;21.026;2024-02-16T05:25:21;6.80;99.90
21393;DHT22;10857;52.228;21.026;2024-02-16T05:27:48;6.70;99.90
21393;DHT22;10857;52.228;21.026;2024-02-16T05:30:16;6.70;99.90
21393;DHT22;10857;52.228;21.026;2024-02-16T05:32:43;6.70;99.90
21393;DHT22;10857;52.228;21.026;2024-02-16T05:35:12;6.70;99.90
21393;DHT22;10857;52.228;21.026;2024-02-16T05:37:45;6.70;99.90
21393;DHT22;10857;52.228;21.026;2024-02-16T05:40:15;6.70;99.90
21393;DHT22;10857;52.228;21.026;2024-02-16T05:42:56;6.60;99.90
21393;DHT22;10857;52.228;21.026;2024-02-16T05:45:25;6.60;99.90
21393;DHT22;10857;52.228;21.026;2024-02-16T05:47:53;6.60;99.90
21393;DHT22;10857;52.228;21.026;2024-02-16T05:50:21;6.60;99.90
21393;DHT22;10857;52.228;21.026;2024-02-16T05:52:50;6.60;99.90
21393;DHT22;10857;52.228;21.026;2024-02-16T05:55:18;6.60;99.90
21393;DHT22;10857;52.228;21.026;2024-02-16T05:57:46;6.50;99.90
21393;DHT22;10857;52.228;21.026;2024-02-16T06:00:13;6.50;99.90
21393;DHT22;10857;52.228;21.026;2024-02-16T06:02:42;6.50;99.90
21393;DHT22;10857;52.228;21.026;2024-02-16T06:05:10;6.50;99.90
21393;DHT22;10857;52.228;21.026;2024-02-16T06:07:38;6.50;99.90
21393;DHT22;10857;52.228;21.026;2024-02-16T06:10:06;6.60;99.90
21393;DHT22;10857;52.228;21.026;2024-02-16T06:12:38;6.50;99.90
21393;DHT22;10857;52.228;21.026;2024-02-16T06:15:06;6.50;99.90
21393;DHT22;10857;52.228;21.026;2024-02-16T06:17:34;6.50;99.90
21393;DHT22;10857;52.228;21.026;2024-02-16T06:20:01;6.60;99.90
21393;DHT22;10857;52.228;21.026;2024-02-16T06:22:30;6.60;99.90
21393;DHT22;10857;52.228;21.026;2024-02-16T06:24:58;6.60;99.90
21393;DHT22;10857;52.228;21.026;2024-02-16T06:27:25;6.60;99.90
21393;DHT22;10857;52.228;21.026;2024-02-16T06:29:53;6.50;99.90
21393;DHT22;10857;52.228;21.026;2024-02-16T06:32:20;6.60;99.90
21393;DHT22;10857;52.228;21.026;2024-02-16T06:34:49;6.50;99.90
21393;DHT22;10857;52.228;21.026;2024-02-16T06:37:17;6.60;99.90
21393;DHT22;10857;52.228;21.026;2024-02-16T06:39:44;6.60;99.90
21393;DHT22;10857;52.228;21.026;2024-02-16T06:42:11;6.60;99.90
21393;DHT22;10857;52.228;21.026;2024-02-16T06:44:40;6.60;99.90
21393;DHT22;10857;52.228;21.026;2024-02-16T06:47:07;6.60;99.90
21393;DHT22;10857;52.228;21.026;2024-02-16T06:49:34;6.60;99.90
21393;DHT22;10857;52.228;21.026;2024-02-16T06:52:01;6.80;99.90
21393;DHT22;10857;52.228;21.026;2024-02-16T06:54:28;6.80;99.90
21393;DHT22;10857;52.228;21.026;2024-02-16T06:56:55;6.80;99.90
21393;DHT22;10857;52.228;21.026;2024-02-16T06:59:23;6.90;99.90
21393;DHT22;10857;52.228;21.026;2024-02-16T07:01:50;6.80;99.90
21393;DHT22;10857;52.228;21.026;2024-02-16T07:04:17;6.80;99.90
21393;DHT22;10857;52.228;21.026;2024-02-16T07:06:44;6.90;99.90
21393;DHT22;10857;52.228;21.026;2024-02-16T07:09:11;6.90;99.90
21393;DHT22;10857;52.228;21.026;2024-02-16T07:11:42;7.00;99.90
21393;DHT22;10857;52.228;21.026;2024-02-16T07:14:10;7.00;99.90
21393;DHT22;10857;52.228;21.026;2024-02-16T07:16:37;7.00;99.90
21393;DHT22;10857;52.228;21.026;2024-02-16T07:19:04;7.10;99.90
21393;DHT22;10857;52.228;21.026;2024-02-16T07:21:32;7.10;99.90
21393;DHT22;10857;52.228;21.026;2024-02-16T07:23:59;7.20;99.90
21393;DHT22;10857;52.228;21.026;2024-02-16T07:26:27;7.20;99.90
21393;DHT22;10857;52.228;21.026;2024-02-16T07:28:54;7.20;99.90
21393;DHT22;10857;52.228;21.026;2024-02-16T07:31:21;7.20;99.90
21393;DHT22;10857;52.228;21.026;2024-02-16T07:33:48;7.30;99.90
21393;DHT22;10857;52.228;21.026;2024-02-16T07:36:16;7.30;99.90
21393;DHT22;10857;52.228;21.026;2024-02-16T07:38:45;7.30;99.90
21393;DHT22;10857;52.228;21.026;2024-02-16T07:41:13;7.40;99.90
21393;DHT22;10857;52.228;21.026;2024-02-16T07:43:40;7.40;99.90
21393;DHT22;10857;52.228;21.026;2024-02-16T07:46:07;7.40;99.90
21393;DHT22;10857;52.228;21.026;2024-02-16T07:48:35;7.50;99.90
21393;DHT22;10857;52.228;21.026;2024-02-16T07:51:02;7.60;99.90
21393;DHT22;10857;52.228;21.026;2024-02-16T07:53:31;7.60;99.90
21393;DHT22;10857;52.228;21.026;2024-02-16T07:55:58;7.60;99.90
21393;DHT22;10857;52.228;21.026;2024-02-16T07:58:25;7.80;99.90
21393;DHT22;10857;52.228;21.026;2024-02-16T08:00:52;7.90;99.90
21393;DHT22;10857;52.228;21.026;2024-02-16T08:03:22;7.90;99.90
21393;DHT22;10857;52.228;21.026;2024-02-16T08:05:49;8.00;99.90
21393;DHT22;10857;52.228;21.026;2024-02-16T08:08:17;8.00;99.90
21393;DHT22;10857;52.228;21.026;2024-02-16T08:10:43;8.00;99.90
21393;DHT22;10857;52.228;21.026;2024-02-16T08:13:12;8.10;99.90
21393;DHT22;10857;52.228;21.026;2024-02-16T08:15:39;8.10;99.90
21393;DHT22;10857;52.228;21.026;2024-02-16T08:18:06;8.10;99.90
21393;DHT22;10857;52.228;21.026;2024-02-16T08:20:34;8.20;99.80
21393;DHT22;10857;52.228;21.026;2024-02-16T08:23:01;8.30;99.40
21393;DHT22;10857;52.228;21.026;2024-02-16T08:25:28;8.30;98.70
21393;DHT22;10857;52.228;21.026;2024-02-16T08:27:57;8.50;98.20
21393;DHT22;10857;52.228;21.026;2024-02-16T08:30:24;8.60;97.40
21393;DHT22;10857;52.228;21.026;2024-02-16T08:32:52;8.70;95.40
21393;DHT22;10857;52.228;21.026;2024-02-16T08:35:21;8.80;94.60
21393;DHT22;10857;52.228;21.026;2024-02-16T08:37:48;8.90;94.40
21393;DHT22;10857;52.228;21.026;2024-02-16T08:40:15;9.00;93.10
21393;DHT22;10857;52.228;21.026;2024-02-16T08:42:43;9.00;92.30
21393;DHT22;10857;52.228;21.026;2024-02-16T08:45:10;9.10;91.70
21393;DHT22;10857;52.228;21.026;2024-02-16T08:47:38;9.20;91.30
21393;DHT22;10857;52.228;21.026;2024-02-16T08:50:08;9.20;90.80
21393;DHT22;10857;52.228;21.026;2024-02-16T08:52:35;9.10;90.40
21393;DHT22;10857;52.228;21.026;2024-02-16T08:55:02;9.20;90.20
21393;DHT22;10857;52.228;21.026;2024-02-16T08:57:31;9.20;90.20
21393;DHT22;10857;52.228;21.026;2024-02-16T08:59:59;9.10;90.80
21393;DHT22;10857;52.228;21.026;2024-02-16T09:02:26;9.20;90.40
21393;DHT22;10857;52.228;21.026;2024-02-16T09:04:53;9.20;90.50
21393;DHT22;10857;52.228;21.026;2024-02-16T09:07:20;9.10;90.80
21393;DHT22;10857;52.228;21.026;2024-02-16T09:09:49;9.20;90.80
21393;DHT22;10857;52.228;21.026;2024-02-16T09:12:16;9.30;90.50
21393;DHT22;10857;52.228;21.026;2024-02-16T09:14:43;9.30;90.00
21393;DHT22;10857;52.228;21.026;2024-02-16T09:17:12;9.40;90.00
21393;DHT22;10857;52.228;21.026;2024-02-16T09:19:40;9.40;88.80
21393;DHT22;10857;52.228;21.026;2024-02-16T09:22:07;9.30;89.10
21393;DHT22;10857;52.228;21.026;2024-02-16T09:24:34;9.40;88.90
21393;DHT22;10857;52.228;21.026;2024-02-16T09:27:01;9.50;88.00
21393;DHT22;10857;52.228;21.026;2024-02-16T09:29:31;9.40;87.70
21393;DHT22;10857;52.228;21.026;2024-02-16T09:31:58;9.40;87.60
21393;DHT22;10857;52.228;21.026;2024-02-16T09:34:26;9.50;86.40
21393;DHT22;10857;52.228;21.026;2024-02-16T09:36:53;9.60;86.10
21393;DHT22;10857;52.228;21.026;2024-02-16T09:39:20;9.60;85.60
21393;DHT22;10857;52.228;21.026;2024-02-16T09:41:51;9.60;85.50
21393;DHT22;10857;52.228;21.026;2024-02-16T09:44:22;9.70;84.40
21393;DHT22;10857;52.228;21.026;2024-02-16T09:46:49;9.80;83.70
21393;DHT22;10857;52.228;21.026;2024-02-16T09:49:18;9.90;82.70
21393;DHT22;10857;52.228;21.026;2024-02-16T09:52:02;9.80;82.70
21393;DHT22;10857;52.228;21.026;2024-02-16T09:54:33;9.80;82.50
21393;DHT22;10857;52.228;21.026;2024-02-16T09:57:03;9.90;81.60
21393;DHT22;10857;52.228;21.026;2024-02-16T09:59:31;10.00;81.00
21393;DHT22;10857;52.228;21.026;2024-02-16T10:02:02;9.90;80.90
21393;DHT22;10857;52.228;21.026;2024-02-16T10:04:30;10.00;80.40
21393;DHT22;10857;52.228;21.026;2024-02-16T10:07:03;10.00;80.60
21393;DHT22;10857;52.228;21.026;2024-02-16T10:09:38;10.20;79.00
21393;DHT22;10857;52.228;21.026;2024-02-16T10:12:08;10.30;77.50
21393;DHT22;10857;52.228;21.026;2024-02-16T10:14:35;10.40;76.70
21393;DHT22;10857;52.228;21.026;2024-02-16T10:17:04;10.60;75.40
21393;DHT22;10857;52.228;21.026;2024-02-16T10:19:33;10.80;72.40
21393;DHT22;10857;52.228;21.026;2024-02-16T10:22:10;10.80;71.10
21393;DHT22;10857;52.228;21.026;2024-02-16T10:24:39;10.80;70.60
21393;DHT22;10857;52.228;21.026;2024-02-16T10:27:14;10.80;71.00
21393;DHT22;10857;52.228;21.026;2024-02-16T10:30:29;10.80;70.70
21393;DHT22;10857;52.228;21.026;2024-02-16T10:32:57;10.80;70.00
21393;DHT22;10857;52.228;21.026;2024-02-16T10:35:28;10.90;69.40
21393;DHT22;10857;52.228;21.026;2024-02-16T10:37:56;10.90;68.70
21393;DHT22;10857;52.228;21.026;2024-02-16T10:40:26;10.90;68.80
21393;DHT22;10857;52.228;21.026;2024-02-16T10:42:54;11.00;67.60
21393;DHT22;10857;52.228;21.026;2024-02-16T10:45:22;11.00;67.70
21393;DHT22;10857;52.228;21.026;2024-02-16T10:47:54;11.00;67.50
21393;DHT22;10857;52.228;21.026;2024-02-16T10:50:21;11.10;66.80
21393;DHT22;10857;52.228;21.026;2024-02-16T10:52:49;11.10;67.40
21393;DHT22;10857;52.228;21.026;2024-02-16T10:55:16;11.20;66.40
21393;DHT22;10857;52.228;21.026;2024-02-16T10:57:44;11.40;64.60
21393;DHT22;10857;52.228;21.026;2024-02-16T11:00:12;11.40;63.60
21393;DHT22;10857;52.228;21.026;2024-02-16T11:02:56;11.50;62.50
21393;DHT22;10857;52.228;21.026;2024-02-16T11:05:52;11.60;61.80
21393;DHT22;10857;52.228;21.026;2024-02-16T11:08:21;11.60;61.60
21393;DHT22;10857;52.228;21.026;2024-02-16T11:11:02;11.60;61.60
21393;DHT22;10857;52.228;21.026;2024-02-16T11:13:35;11.60;61.50
21393;DHT22;10857;52.228;21.026;2024-02-16T11:16:10;11.70;61.10
21393;DHT22;10857;52.228;21.026;2024-02-16T11:18:39;11.80;60.40
21393;DHT22;10857;52.228;21.026;2024-02-16T11:21:12;11.80;60.30
21393;DHT22;10857;52.228;21.026;2024-02-16T11:23:40;11.90;60.00
21393;DHT22;10857;52.228;21.026;2024-02-16T11:26:11;11.90;60.90
21393;DHT22;10857;52.228;21.026;2024-02-16T11:28:41;12.10;59.90
21393;DHT22;10857;52.228;21.026;2024-02-16T11:31:09;12.20;59.90
21393;DHT22;10857;52.228;21.026;2024-02-16T11:33:36;12.30;59.90
21393;DHT22;10857;52.228;21.026;2024-02-16T11:36:10;12.30;59.90
21393;DHT22;10857;52.228;21.026;2024-02-16T11:38:39;12.40;59.90
21393;DHT22;10857;52.228;21.026;2024-02-16T11:41:06;12.30;59.90
21393;DHT22;10857;52.228;21.026;2024-02-16T11:43:36;12.30;59.90
21393;DHT22;10857;52.228;21.026;2024-02-16T11:46:14;12.40;59.90
21393;DHT22;10857;52.228;21.026;2024-02-16T11:48:41;12.50;59.90
21393;DHT22;10857;52.228;21.026;2024-02-16T11:51:09;12.60;59.80
21393;DHT22;10857;52.228;21.026;2024-02-16T11:53:36;12.70;59.80
21393;DHT22;10857;52.228;21.026;2024-02-16T11:56:03;12.70;59.80
21393;DHT22;10857;52.228;21.026;2024-02-16T11:58:31;12.70;59.80
21393;DHT22;10857;52.228;21.026;2024-02-16T12:00:58;12.80;59.80
21393;DHT22;10857;52.228;21.026;2024-02-16T12:03:30;13.00;59.80
21393;DHT22;10857;52.228;21.026;2024-02-16T12:05:58;12.90;59.80
21393;DHT22;10857;52.228;21.026;2024-02-16T12:08:34;12.80;59.80
21393;DHT22;10857;52.228;21.026;2024-02-16T12:11:02;12.90;59.80
21393;DHT22;10857;52.228;21.026;2024-02-16T12:13:29;13.00;59.80
21393;DHT22;10857;52.228;21.026;2024-02-16T12:15:57;13.20;59.80
21393;DHT22;10857;52.228;21.026;2024-02-16T12:18:26;13.40;59.70
21393;DHT22;10857;52.228;21.026;2024-02-16T12:21:04;13.40;59.70
21393;DHT22;10857;52.228;21.026;2024-02-16T12:23:33;13.40;59.70
21393;DHT22;10857;52.228;21.026;2024-02-16T12:26:01;13.60;59.70
21393;DHT22;10857;52.228;21.026;2024-02-16T12:28:30;13.60;59.60
21393;DHT22;10857;52.228;21.026;2024-02-16T12:31:00;13.50;59.60
21393;DHT22;10857;52.228;21.026;2024-02-16T12:33:30;13.60;59.60
21393;DHT22;10857;52.228;21.026;2024-02-16T12:35:58;13.60;59.60
21393;DHT22;10857;52.228;21.026;2024-02-16T12:38:25;13.80;59.60
21393;DHT22;10857;52.228;21.026;2024-02-16T12:40:52;13.80;59.60
21393;DHT22;10857;52.228;21.026;2024-02-16T12:43:19;13.80;59.60
21393;DHT22;10857;52.228;21.026;2024-02-16T12:45:46;13.70;59.60
21393;DHT22;10857;52.228;21.026;2024-02-16T12:48:14;13.60;59.60
21393;DHT22;10857;52.228;21.026;2024-02-16T12:50:42;13.60;59.60
21393;DHT22;10857;52.228;21.026;2024-02-16T12:53:09;13.50;59.70
21393;DHT22;10857;52.228;21.026;2024-02-16T12:55:37;13.30;59.70
21393;DHT22;10857;52.228;21.026;2024-02-16T12:58:04;13.30;59.70
21393;DHT22;10857;52.228;21.026;2024-02-16T13:00:31;13.30;59.70
21393;DHT22;10857;52.228;21.026;2024-02-16T13:02:59;13.40;59.70
21393;DHT22;10857;52.228;21.026;2024-02-16T13:05:26;13.40;59.70
21393;DHT22;10857;52.228;21.026;2024-02-16T13:07:54;13.30;59.70
21393;DHT22;10857;52.228;21.026;2024-02-16T13:10:22;13.40;59.70
21393;DHT22;10857;52.228;21.026;2024-02-16T13:12:49;13.30;59.70
21393;DHT22;10857;52.228;21.026;2024-02-16T13:15:16;13.30;59.70
21393;DHT22;10857;52.228;21.026;2024-02-16T13:17:54;13.20;59.80
21393;DHT22;10857;52.228;21.026;2024-02-16T13:20:22;13.10;59.80
21393;DHT22;10857;52.228;21.026;2024-02-16T13:22:49;13.10;59.80
21393;DHT22;10857;52.228;21.026;2024-02-16T13:25:19;13.10;59.80
21393;DHT22;10857;52.228;21.026;2024-02-16T13:27:46;13.10;59.80
21393;DHT22;10857;52.228;21.026;2024-02-16T13:30:13;13.00;59.80
21393;DHT22;10857;52.228;21.026;2024-02-16T13:32:40;13.00;59.80
21393;DHT22;10857;52.228;21.026;2024-02-16T13:35:08;13.00;59.80
21393;DHT22;10857;52.228;21.026;2024-02-16T13:37:35;13.00;59.80
21393;DHT22;10857;52.228;21.026;2024-02-16T13:40:04;13.00;59.80
21393;DHT22;10857;52.228;21.026;2024-02-16T13:42:34;13.10;59.80
21393;DHT22;10857;52.228;21.026;2024-02-16T13:45:02;13.10;59.80
21393;DHT22;10857;52.228;21.026;2024-02-16T13:47:29;13.10;59.80
21393;DHT22;10857;52.228;21.026;2024-02-16T13:49:56;13.20;59.90
21393;DHT22;10857;52.228;21.026;2024-02-16T13:52:27;13.20;59.80
21393;DHT22;10857;52.228;21.026;2024-02-16T13:54:54;13.10;59.80
21393;DHT22;10857;52.228;21.026;2024-02-16T13:57:21;13.10;59.80
21393;DHT22;10857;52.228;21.026;2024-02-16T13:59:48;13.10;59.80
21393;DHT22;10857;52.228;21.026;2024-02-16T14:02:16;13.10;59.80
21393;DHT22;10857;52.228;21.026;2024-02-16T14:04:43;13.10;59.80
21393;DHT22;10857;52.228;21.026;2024-02-16T14:07:10;13.00;59.80
21393;DHT22;10857;52.228;21.026;2024-02-16T14:09:38;13.00;59.80
21393;DHT22;10857;52.228;21.026;2024-02-16T14:12:05;13.00;59.80
21393;DHT22;10857;52.228;21.026;2024-02-16T14:14:32;12.90;59.90
21393;DHT22;10857;52.228;21.026;2024-02-16T14:17:04;12.90;59.90
21393;DHT22;10857;52.228;21.026;2024-02-16T14:19:32;12.80;59.90
21393;DHT22;10857;52.228;21.026;2024-02-16T14:22:02;12.80;59.90
21393;DHT22;10857;52.228;21.026;2024-02-16T14:24:30;12.90;59.90
21393;DHT22;10857;52.228;21.026;2024-02-16T14:26:57;12.90;59.90
21393;DHT22;10857;52.228;21.026;2024-02-16T14:29:26;12.90;59.80
21393;DHT22;10857;52.228;21.026;2024-02-16T14:31:55;12.90;59.80
21393;DHT22;10857;52.228;21.026;2024-02-16T14:34:23;12.80;59.90
21393;DHT22;10857;52.228;21.026;2024-02-16T14:36:51;12.80;59.90
21393;DHT22;10857;52.228;21.026;2024-02-16T14:39:18;12.70;59.90
21393;DHT22;10857;52.228;21.026;2024-02-16T14:41:45;12.70;59.90
21393;DHT22;10857;52.228;21.026;2024-02-16T14:44:12;12.70;59.90
21393;DHT22;10857;52.228;21.026;2024-02-16T14:46:39;12.70;59.90
21393;DHT22;10857;52.228;21.026;2024-02-16T14:49:06;12.70;59.90
21393;DHT22;10857;52.228;21.026;2024-02-16T14:51:40;12.70;59.80
21393;DHT22;10857;52.228;21.026;2024-02-16T14:54:08;12.60;59.90
21393;DHT22;10857;52.228;21.026;2024-02-16T14:56:36;12.50;59.90
21393;DHT22;10857;52.228;21.026;2024-02-16T14:59:03;12.50;59.90
21393;DHT22;10857;52.228;21.026;2024-02-16T15:01:31;12.50;59.90
21393;DHT22;10857;52.228;21.026;2024-02-16T15:03:59;12.50;59.90
21393;DHT22;10857;52.228;21.026;2024-02-16T15:06:27;12.40;59.90
21393;DHT22;10857;52.228;21.026;2024-02-16T15:08:54;12.40;59.90
21393;DHT22;10857;52.228;21.026;2024-02-16T15:11:21;12.30;59.90
21393;DHT22;10857;52.228;21.026;2024-02-16T15:13:48;12.30;59.90
21393;DHT22;10857;52.228;21.026;2024-02-16T15:16:16;12.30;59.90
21393;DHT22;10857;52.228;21.026;2024-02-16T15:18:43;12.20;59.90
21393;DHT22;10857;52.228;21.026;2024-02-16T15:21:10;12.10;59.90
21393;DHT22;10857;52.228;21.026;2024-02-16T15:23:38;12.10;59.90
21393;DHT22;10857;52.228;21.026;2024-02-16T15:26:05;12.00;60.30
21393;DHT22;10857;52.228;21.026;2024-02-16T15:28:33;11.90;61.50
21393;DHT22;10857;52.228;21.026;2024-02-16T15:31:00;11.90;62.10